Time;durP1;ratioP1;P1;durP2;ratioP2;P2;SDS_P1;SDS_P2;PMS_P1;PMS_P2;Temp;Humidity;BMP_temperature;BMP_pressure;BME280_temperature;BME280_humidity;BME280_pressure;Samples;Min_cycle;Max_cycle;Signal;HPM_P1;HPM_P2
2021/04/19 00:01:34;;;;;;;;;;;18.50;54.10;;;;;;5043209;28;20046;-56
2021/04/19 00:04:00;;;;;;;;;;;18.50;54.00;;;;;;5044271;28;19913;-59
2021/04/19 00:06:25;;;;;;;;;;;18.50;54.10;;;;;;5042019;28;20297;-59
2021/04/19 00:08:51;;;;;;;;;;;18.50;54.10;;;;;;5042988;28;19921;-57
2021/04/19 00:11:16;;;;;;;;;;;18.50;54.10;;;;;;5043093;28;19924;-58
2021/04/19 00:13:42;;;;;;;;;;;18.50;54.10;;;;;;5038582;28;20339;-56
2021/04/19 00:16:08;;;;;;;;;;;18.40;54.00;;;;;;5017599;28;20554;-60
2021/04/19 00:18:33;;;;;;;;;;;18.50;54.00;;;;;;5020918;28;19913;-59
2021/04/19 00:20:59;;;;;;;;;;;18.40;54.00;;;;;;5020709;28;19913;-55
2021/04/19 00:23:24;;;;;;;;;;;18.50;54.00;;;;;;5020547;28;19967;-57
2021/04/19 00:25:50;;;;;;;;;;;18.50;54.00;;;;;;5001377;28;19924;-59
2021/04/19 00:28:15;;;;;;;;;;;18.50;54.00;;;;;;5021575;28;19944;-57
2021/04/19 00:30:41;;;;;;;;;;;18.50;54.00;;;;;;5023103;28;19914;-59
2021/04/19 00:33:06;;;;;;;;;;;18.50;54.00;;;;;;5006416;28;19975;-57
2021/04/19 00:35:32;;;;;;;;;;;18.50;54.00;;;;;;5023445;28;19913;-62
2021/04/19 00:37:57;;;;;;;;;;;18.40;53.90;;;;;;5024308;28;19914;-59
2021/04/19 00:40:22;;;;;;;;;;;18.40;54.00;;;;;;5004901;28;20374;-59
2021/04/19 00:42:48;;;;;;;;;;;18.40;53.90;;;;;;5023401;28;19920;-59
2021/04/19 00:45:14;;;;;;;;;;;18.40;53.90;;;;;;5023257;28;19913;-60
2021/04/19 00:47:39;;;;;;;;;;;18.50;54.00;;;;;;5023365;28;20255;-59
2021/04/19 00:50:05;;;;;;;;;;;18.40;54.00;;;;;;5022749;28;20548;-55
2021/04/19 00:52:31;;;;;;;;;;;18.40;54.00;;;;;;5023977;28;19996;-55
2021/04/19 00:54:56;;;;;;;;;;;18.40;53.90;;;;;;5005101;28;19914;-59
2021/04/19 00:57:22;;;;;;;;;;;18.40;54.00;;;;;;5022621;28;19928;-57
2021/04/19 00:59:47;;;;;;;;;;;18.40;54.00;;;;;;5021931;28;19952;-58
2021/04/19 01:02:13;;;;;;;;;;;18.40;54.00;;;;;;5023340;28;19920;-59
2021/04/19 01:04:38;;;;;;;;;;;18.40;53.90;;;;;;5024102;28;19921;-58
2021/04/19 01:07:03;;;;;;;;;;;18.40;53.90;;;;;;5022254;28;19917;-59
2021/04/19 01:09:29;;;;;;;;;;;18.40;53.90;;;;;;5005586;28;20589;-59
2021/04/19 01:11:54;;;;;;;;;;;18.40;53.90;;;;;;5023199;28;20129;-57
2021/04/19 01:14:20;;;;;;;;;;;18.40;53.90;;;;;;5023348;28;19914;-58
2021/04/19 01:16:45;;;;;;;;;;;18.40;53.90;;;;;;5021935;28;19921;-58
2021/04/19 01:19:11;;;;;;;;;;;18.40;54.00;;;;;;5005200;28;20371;-58
2021/04/19 01:21:36;;;;;;;;;;;18.40;53.90;;;;;;5021182;28;19979;-55
2021/04/19 01:24:02;;;;;;;;;;;18.40;53.90;;;;;;5022862;28;19917;-57
2021/04/19 01:26:27;;;;;;;;;;;18.40;53.90;;;;;;5005010;28;20007;-56
2021/04/19 01:28:52;;;;;;;;;;;18.40;53.90;;;;;;5022625;28;19951;-55
2021/04/19 01:31:18;;;;;;;;;;;18.40;53.90;;;;;;5022371;28;20314;-58
2021/04/19 01:33:43;;;;;;;;;;;18.40;53.90;;;;;;5021052;28;20036;-58
2021/04/19 01:36:09;;;;;;;;;;;18.40;53.90;;;;;;5021747;28;19971;-57
2021/04/19 01:38:34;;;;;;;;;;;18.40;53.90;;;;;;5022154;28;19921;-58
2021/04/19 01:41:00;;;;;;;;;;;18.40;53.80;;;;;;5023192;28;19917;-58
2021/04/19 01:43:25;;;;;;;;;;;18.40;53.80;;;;;;5022842;28;19915;-59
2021/04/19 01:45:51;;;;;;;;;;;18.40;53.80;;;;;;5021915;28;19956;-59
2021/04/19 01:48:19;;;;;;;;;;;18.40;53.80;;;;;;5022347;28;20054;-56
2021/04/19 01:50:44;;;;;;;;;;;18.40;53.80;;;;;;5002982;28;19913;-58
2021/04/19 01:53:10;;;;;;;;;;;18.40;53.80;;;;;;5022227;28;20040;-56
2021/04/19 01:55:35;;;;;;;;;;;18.40;53.80;;;;;;5022563;28;19917;-56
2021/04/19 01:58:05;;;;;;;;;;;18.40;53.80;;;;;;5004909;28;20353;-56
2021/04/19 02:00:31;;;;;;;;;;;18.30;53.80;;;;;;5003297;28;19919;-58
2021/04/19 02:03:03;;;;;;;;;;;18.40;53.90;;;;;;5021289;28;19936;-58
2021/04/19 02:05:34;;;;;;;;;;;18.40;53.90;;;;;;5021309;28;19913;-60
2021/04/19 02:08:07;;;;;;;;;;;18.40;53.80;;;;;;4993780;28;19921;-59
2021/04/19 02:10:32;;;;;;;;;;;18.40;53.80;;;;;;5021398;28;20000;-60
2021/04/19 02:13:11;;;;;;;;;;;18.40;53.80;;;;;;5020908;28;20028;-59
2021/04/19 02:15:40;;;;;;;;;;;18.40;53.80;;;;;;5020703;28;19920;-59
2021/04/19 02:18:07;;;;;;;;;;;18.40;53.70;;;;;;5022011;28;19976;-58
2021/04/19 02:20:49;;;;;;;;;;;18.40;53.80;;;;;;5003936;28;20454;-57
2021/04/19 02:23:23;;;;;;;;;;;18.30;53.70;;;;;;5003525;28;19914;-59
2021/04/19 02:25:49;;;;;;;;;;;18.40;53.70;;;;;;5021838;28;19917;-59
2021/04/19 02:28:19;;;;;;;;;;;18.30;53.70;;;;;;5004553;28;19917;-59
2021/04/19 02:30:46;;;;;;;;;;;18.30;53.70;;;;;;5021533;28;20302;-58
2021/04/19 02:33:12;;;;;;;;;;;18.30;53.60;;;;;;5021844;28;19913;-60
2021/04/19 02:35:38;;;;;;;;;;;18.30;53.60;;;;;;4986797;28;19963;-56
2021/04/19 02:38:04;;;;;;;;;;;18.30;53.60;;;;;;5004325;28;19921;-59
2021/04/19 02:40:29;;;;;;;;;;;18.30;53.60;;;;;;5003396;28;20471;-58
2021/04/19 02:42:55;;;;;;;;;;;18.30;53.60;;;;;;5003923;28;19940;-58
2021/04/19 02:45:21;;;;;;;;;;;18.30;53.60;;;;;;5019549;28;19955;-55
2021/04/19 02:47:46;;;;;;;;;;;18.30;53.60;;;;;;5019794;28;19941;-57
2021/04/19 02:50:19;;;;;;;;;;;18.30;53.60;;;;;;5002865;28;19937;-57
2021/04/19 02:52:44;;;;;;;;;;;18.30;53.60;;;;;;5003619;28;19924;-56
2021/04/19 02:55:10;;;;;;;;;;;18.30;53.60;;;;;;5019532;28;19917;-58
2021/04/19 02:57:41;;;;;;;;;;;18.30;53.60;;;;;;5021011;28;19917;-55
2021/04/19 03:00:07;;;;;;;;;;;18.30;53.60;;;;;;5020155;28;20286;-59
2021/04/19 03:02:32;;;;;;;;;;;18.30;53.50;;;;;;5020210;28;19913;-63
2021/04/19 03:04:58;;;;;;;;;;;18.30;53.50;;;;;;5003071;28;20341;-57
2021/04/19 03:07:25;;;;;;;;;;;18.30;53.40;;;;;;5003352;28;19917;-57
2021/04/19 03:09:51;;;;;;;;;;;18.30;53.40;;;;;;5002082;28;19979;-55
2021/04/19 03:12:17;;;;;;;;;;;18.30;53.40;;;;;;5020560;28;20016;-56
2021/04/19 03:14:51;;;;;;;;;;;18.30;53.40;;;;;;5002554;28;20340;-57
2021/04/19 03:17:16;;;;;;;;;;;18.30;53.50;;;;;;5002996;28;19917;-57
2021/04/19 03:19:42;;;;;;;;;;;18.30;53.40;;;;;;5020598;28;19963;-56
2021/04/19 03:22:08;;;;;;;;;;;18.30;53.40;;;;;;5002859;28;19936;-58
2021/04/19 03:24:33;;;;;;;;;;;18.30;53.40;;;;;;5002940;28;20362;-58
2021/04/19 03:26:59;;;;;;;;;;;18.30;53.40;;;;;;5003352;28;19940;-57
2021/04/19 03:29:25;;;;;;;;;;;18.30;53.40;;;;;;5003364;28;20017;-60
2021/04/19 03:31:51;;;;;;;;;;;18.30;53.30;;;;;;5020619;28;20538;-59
2021/04/19 03:34:18;;;;;;;;;;;18.30;53.30;;;;;;5021298;28;19996;-59
2021/04/19 03:36:43;;;;;;;;;;;18.30;53.30;;;;;;5002917;28;19913;-58
2021/04/19 03:39:09;;;;;;;;;;;18.30;53.30;;;;;;5002886;28;20168;-59
2021/04/19 03:41:38;;;;;;;;;;;18.30;53.20;;;;;;5021054;28;20014;-58
2021/04/19 03:44:04;;;;;;;;;;;18.30;53.30;;;;;;5002877;28;19971;-61
2021/04/19 03:46:30;;;;;;;;;;;18.30;53.80;;;;;;5002629;28;20349;-57
2021/04/19 03:49:00;;;;;;;;;;;18.30;53.20;;;;;;5019487;28;19913;-57
2021/04/19 03:51:26;;;;;;;;;;;18.30;53.20;;;;;;5002949;28;19913;-59
2021/04/19 03:53:51;;;;;;;;;;;18.30;53.20;;;;;;5002822;28;20447;-58
2021/04/19 03:56:17;;;;;;;;;;;18.30;53.10;;;;;;5003313;28;20041;-58
2021/04/19 03:58:42;;;;;;;;;;;18.30;53.10;;;;;;5006812;28;19917;-58
2021/04/19 04:01:08;;;;;;;;;;;18.30;53.10;;;;;;5004912;28;19913;-56
2021/04/19 04:03:33;;;;;;;;;;;18.30;53.10;;;;;;5007026;28;19936;-60
2021/04/19 04:05:59;;;;;;;;;;;18.30;53.10;;;;;;5006478;28;20463;-57
2021/04/19 04:08:25;;;;;;;;;;;18.30;53.00;;;;;;5006609;28;20294;-54
2021/04/19 04:10:50;;;;;;;;;;;18.30;53.00;;;;;;5006375;28;19962;-59
2021/04/19 04:13:17;;;;;;;;;;;18.30;53.00;;;;;;5006233;28;19917;-58
2021/04/19 04:15:52;;;;;;;;;;;18.30;53.00;;;;;;5023270;28;20008;-57
2021/04/19 04:18:18;;;;;;;;;;;18.30;53.00;;;;;;5023305;28;19913;-54
2021/04/19 04:20:43;;;;;;;;;;;18.30;53.00;;;;;;5005783;28;20000;-55
2021/04/19 04:23:09;;;;;;;;;;;18.30;52.90;;;;;;5023082;28;19955;-59
2021/04/19 04:25:34;;;;;;;;;;;18.30;52.90;;;;;;5006353;28;20198;-53
2021/04/19 04:28:00;;;;;;;;;;;18.30;52.90;;;;;;5006403;28;19917;-57
2021/04/19 04:30:26;;;;;;;;;;;18.20;52.90;;;;;;5021358;28;20410;-57
2021/04/19 04:32:52;;;;;;;;;;;18.20;52.90;;;;;;5022194;28;19949;-59
2021/04/19 04:35:17;;;;;;;;;;;18.20;52.90;;;;;;5023839;28;19913;-58
2021/04/19 04:37:42;;;;;;;;;;;18.20;52.90;;;;;;5022577;28;19913;-58
2021/04/19 04:40:08;;;;;;;;;;;18.20;53.00;;;;;;5023222;28;19955;-58
2021/04/19 04:42:34;;;;;;;;;;;18.20;53.00;;;;;;5023154;28;19940;-59
2021/04/19 04:44:59;;;;;;;;;;;18.20;53.10;;;;;;5005598;28;20295;-57
2021/04/19 04:47:30;;;;;;;;;;;18.20;53.20;;;;;;5004515;28;20341;-56
2021/04/19 04:50:01;;;;;;;;;;;18.20;53.30;;;;;;5004587;28;19928;-57
2021/04/19 04:52:27;;;;;;;;;;;18.20;54.40;;;;;;5023435;28;19924;-58
2021/04/19 04:54:53;;;;;;;;;;;18.20;53.60;;;;;;5005072;28;19959;-57
2021/04/19 04:57:21;;;;;;;;;;;18.20;53.40;;;;;;5022721;28;19914;-58
2021/04/19 04:59:50;;;;;;;;;;;18.30;53.40;;;;;;5023268;28;19917;-57
2021/04/19 05:02:18;;;;;;;;;;;18.20;53.10;;;;;;5004977;28;20021;-59
2021/04/19 05:04:43;;;;;;;;;;;18.30;53.10;;;;;;5023599;28;20370;-60
2021/04/19 05:07:09;;;;;;;;;;;18.20;53.00;;;;;;5021015;28;19928;-59
2021/04/19 05:09:34;;;;;;;;;;;18.30;53.00;;;;;;5022230;28;20411;-56
2021/04/19 05:12:00;;;;;;;;;;;18.30;52.90;;;;;;5022701;28;19913;-56
2021/04/19 05:14:26;;;;;;;;;;;18.30;52.80;;;;;;5004181;28;19913;-57
2021/04/19 05:16:51;;;;;;;;;;;18.30;52.80;;;;;;5021205;28;19913;-59
2021/04/19 05:19:17;;;;;;;;;;;18.20;52.60;;;;;;5021923;28;19921;-55
2021/04/19 05:21:42;;;;;;;;;;;18.20;52.60;;;;;;5022819;28;19913;-59
2021/04/19 05:24:08;;;;;;;;;;;18.20;53.20;;;;;;5023340;28;20294;-58
2021/04/19 05:26:33;;;;;;;;;;;18.20;52.50;;;;;;5003740;28;20059;-59
2021/04/19 05:28:59;;;;;;;;;;;18.20;52.50;;;;;;5018031;28;19922;-59
2021/04/19 05:31:24;;;;;;;;;;;18.20;52.50;;;;;;5057568;22;19997;-75
2021/04/19 05:33:53;;;;;;;;;;;18.20;52.50;;;;;;5050646;28;19920;-71
2021/04/19 05:36:18;;;;;;;;;;;18.20;53.30;;;;;;5059272;28;19913;-71
2021/04/19 05:38:44;;;;;;;;;;;18.20;54.00;;;;;;5043576;28;19921;-70
2021/04/19 05:41:10;;;;;;;;;;;18.20;54.10;;;;;;5036316;28;19913;-71
2021/04/19 05:43:35;;;;;;;;;;;18.20;54.20;;;;;;5028639;28;19919;-72
2021/04/19 05:46:01;;;;;;;;;;;18.20;54.10;;;;;;5029167;28;19924;-71
2021/04/19 05:48:26;;;;;;;;;;;18.20;54.00;;;;;;5028384;28;19913;-72
2021/04/19 05:50:52;;;;;;;;;;;18.20;53.80;;;;;;5027882;28;19913;-71
2021/04/19 05:53:18;;;;;;;;;;;18.20;53.80;;;;;;5027496;28;19917;-70
2021/04/19 05:55:44;;;;;;;;;;;18.20;53.60;;;;;;5027452;28;19919;-73
2021/04/19 05:58:12;;;;;;;;;;;18.20;53.50;;;;;;5045825;28;19920;-72
2021/04/19 06:00:39;;;;;;;;;;;18.20;53.50;;;;;;5049682;22;20360;-58
2021/04/19 06:03:09;;;;;;;;;;;18.20;53.50;;;;;;5040620;28;19920;-60
2021/04/19 06:05:35;;;;;;;;;;;18.20;53.50;;;;;;5041253;28;20384;-57
2021/04/19 06:08:39;;;;;;;;;;;18.20;53.60;;;;;;5024591;28;19923;-57
2021/04/19 06:11:09;;;;;;;;;;;18.20;53.70;;;;;;4940481;28;19915;-55
2021/04/19 06:13:35;;;;;;;;;;;18.20;53.80;;;;;;4941498;28;19922;-58
2021/04/19 06:16:01;;;;;;;;;;;18.20;53.80;;;;;;4993474;28;20337;-60
2021/04/19 06:18:26;;;;;;;;;;;18.20;53.70;;;;;;5023916;28;19997;-59
2021/04/19 06:20:52;;;;;;;;;;;18.20;53.50;;;;;;5024125;28;19917;-58
2021/04/19 06:23:18;;;;;;;;;;;18.20;53.40;;;;;;5024280;28;19919;-58
2021/04/19 06:25:43;;;;;;;;;;;18.20;53.50;;;;;;5024031;28;19917;-59
2021/04/19 06:28:08;;;;;;;;;;;18.20;53.60;;;;;;5024419;28;19913;-59
2021/04/19 06:30:41;;;;;;;;;;;18.20;53.60;;;;;;5041971;28;19920;-63
2021/04/19 06:33:08;;;;;;;;;;;18.10;53.60;;;;;;5025449;28;19913;-58
2021/04/19 06:35:33;;;;;;;;;;;18.20;53.60;;;;;;5042149;28;19948;-61
2021/04/19 06:37:59;;;;;;;;;;;18.20;53.60;;;;;;5024029;28;20626;-60
2021/04/19 06:40:24;;;;;;;;;;;18.20;53.60;;;;;;5042030;28;19921;-61
2021/04/19 06:42:53;;;;;;;;;;;18.20;53.60;;;;;;5041755;28;19913;-59
2021/04/19 06:45:19;;;;;;;;;;;18.20;53.60;;;;;;5041821;28;19986;-59
2021/04/19 06:47:44;;;;;;;;;;;18.20;53.70;;;;;;5039815;28;20382;-61
2021/04/19 06:50:11;;;;;;;;;;;18.20;53.60;;;;;;5040727;28;19919;-55
2021/04/19 06:52:36;;;;;;;;;;;18.20;53.60;;;;;;5041022;28;20718;-58
2021/04/19 06:55:02;;;;;;;;;;;18.20;53.50;;;;;;5023841;28;19917;-55
2021/04/19 06:57:29;;;;;;;;;;;18.20;53.50;;;;;;5040917;28;19913;-54
2021/04/19 06:59:54;;;;;;;;;;;18.20;53.50;;;;;;5023197;28;21239;-55
2021/04/19 07:02:20;;;;;;;;;;;18.20;53.50;;;;;;5040907;28;19913;-55
2021/04/19 07:04:45;;;;;;;;;;;18.20;53.50;;;;;;5023837;28;19916;-55
2021/04/19 07:07:11;;;;;;;;;;;18.20;53.50;;;;;;5023196;28;19923;-62
2021/04/19 07:09:36;;;;;;;;;;;18.20;53.50;;;;;;5007761;28;20389;-57
2021/04/19 07:12:08;;;;;;;;;;;18.20;53.50;;;;;;5024105;28;19919;-55
2021/04/19 07:14:36;;;;;;;;;;;18.20;53.60;;;;;;5023986;28;19960;-58
2021/04/19 07:17:03;;;;;;;;;;;18.20;53.60;;;;;;5023483;28;20003;-59
2021/04/19 07:19:28;;;;;;;;;;;18.20;53.60;;;;;;5040828;28;19917;-57
2021/04/19 07:21:54;;;;;;;;;;;18.20;53.60;;;;;;5040586;28;19979;-61
2021/04/19 07:24:19;;;;;;;;;;;18.20;53.60;;;;;;5040821;28;19913;-57
2021/04/19 07:26:48;;;;;;;;;;;18.20;53.60;;;;;;5040752;28;20001;-57
2021/04/19 07:29:13;;;;;;;;;;;18.20;53.60;;;;;;5022559;28;19924;-62
2021/04/19 07:31:45;;;;;;;;;;;18.20;53.60;;;;;;5042666;28;20402;-59
2021/04/19 07:34:18;;;;;;;;;;;18.20;53.60;;;;;;5025491;28;19917;-55
2021/04/19 07:36:47;;;;;;;;;;;18.20;53.60;;;;;;5024709;28;20016;-55
2021/04/19 07:39:16;;;;;;;;;;;18.20;53.60;;;;;;5024272;28;20314;-57
2021/04/19 07:41:51;;;;;;;;;;;18.10;53.60;;;;;;5025129;28;19913;-54
2021/04/19 07:44:36;;;;;;;;;;;18.20;53.70;;;;;;5024719;28;19973;-57
2021/04/19 07:47:19;;;;;;;;;;;18.20;53.70;;;;;;5023718;28;19925;-59
2021/04/19 07:50:03;;;;;;;;;;;18.10;53.70;;;;;;5006661;28;20004;-61
2021/04/19 07:52:29;;;;;;;;;;;18.20;53.80;;;;;;5024679;28;20345;-61
2021/04/19 07:55:02;;;;;;;;;;;18.20;53.80;;;;;;5024332;28;19948;-57
2021/04/19 07:57:27;;;;;;;;;;;18.20;53.80;;;;;;5024046;28;19917;-59
2021/04/19 07:59:53;;;;;;;;;;;18.20;53.80;;;;;;5006387;28;19928;-57
2021/04/19 08:02:19;;;;;;;;;;;18.10;53.80;;;;;;5006604;28;20707;-55
2021/04/19 08:04:51;;;;;;;;;;;18.20;53.90;;;;;;5023973;28;20633;-55
2021/04/19 08:07:17;;;;;;;;;;;18.20;53.90;;;;;;5005670;28;20028;-57
2021/04/19 08:09:43;;;;;;;;;;;18.20;53.90;;;;;;5023468;28;19944;-54
2021/04/19 08:12:09;;;;;;;;;;;18.20;54.00;;;;;;5005672;28;19974;-60
2021/04/19 08:14:40;;;;;;;;;;;18.20;53.90;;;;;;5024631;28;19921;-57
2021/04/19 08:17:09;;;;;;;;;;;18.20;54.00;;;;;;5005532;28;19913;-55
2021/04/19 08:19:35;;;;;;;;;;;18.20;54.00;;;;;;5023331;28;19941;-62
2021/04/19 08:22:11;;;;;;;;;;;18.20;54.00;;;;;;5006477;28;19921;-59
2021/04/19 08:24:36;;;;;;;;;;;18.20;54.00;;;;;;5023008;28;19952;-54
2021/04/19 08:27:02;;;;;;;;;;;18.20;54.00;;;;;;5023568;28;19924;-55
2021/04/19 08:29:45;;;;;;;;;;;18.20;54.00;;;;;;5023319;28;19928;-60
2021/04/19 08:32:11;;;;;;;;;;;18.20;54.00;;;;;;5023019;28;19988;-59
2021/04/19 08:34:37;;;;;;;;;;;18.20;54.00;;;;;;5023181;28;19914;-61
2021/04/19 08:37:03;;;;;;;;;;;18.20;54.30;;;;;;5005910;28;20751;-55
2021/04/19 08:39:29;;;;;;;;;;;18.20;54.00;;;;;;5022992;28;19971;-58
2021/04/19 08:41:55;;;;;;;;;;;18.20;54.00;;;;;;5005138;28;20017;-55
2021/04/19 08:44:20;;;;;;;;;;;18.20;54.00;;;;;;5023135;28;20333;-55
2021/04/19 08:46:46;;;;;;;;;;;18.20;54.00;;;;;;5005019;28;19978;-57
2021/04/19 08:49:12;;;;;;;;;;;18.20;54.00;;;;;;5022489;28;19919;-55
2021/04/19 08:51:37;;;;;;;;;;;18.20;54.00;;;;;;5023486;28;20268;-60
2021/04/19 08:54:03;;;;;;;;;;;18.20;54.00;;;;;;5006082;28;20544;-57
2021/04/19 08:56:28;;;;;;;;;;;18.20;54.00;;;;;;5023061;28;19917;-59
2021/04/19 08:58:54;;;;;;;;;;;18.20;54.00;;;;;;4995339;28;19918;-54
2021/04/19 09:01:19;;;;;;;;;;;18.20;54.00;;;;;;5033399;28;20650;-57
2021/04/19 09:04:00;;;;;;;;;;;18.20;54.00;;;;;;5025106;28;19953;-56
2021/04/19 09:06:25;;;;;;;;;;;18.20;54.00;;;;;;5043054;28;19931;-56
2021/04/19 09:08:51;;;;;;;;;;;18.10;54.00;;;;;;5025065;28;20173;-59
2021/04/19 09:11:25;;;;;;;;;;;18.20;54.00;;;;;;5024729;28;19975;-57
2021/04/19 09:13:51;;;;;;;;;;;18.20;54.00;;;;;;5042745;28;19912;-61
2021/04/19 09:16:16;;;;;;;;;;;18.20;54.10;;;;;;5024419;28;20309;-58
2021/04/19 09:19:00;;;;;;;;;;;18.20;54.00;;;;;;5042525;28;19943;-60
2021/04/19 09:21:41;;;;;;;;;;;18.10;54.00;;;;;;5041885;28;20008;-59
2021/04/19 09:24:07;;;;;;;;;;;18.20;54.00;;;;;;5031395;28;19912;-55
2021/04/19 09:26:48;;;;;;;;;;;18.20;54.00;;;;;;5042763;28;19917;-60
2021/04/19 09:29:26;;;;;;;;;;;18.20;54.00;;;;;;5042253;28;19917;-62
2021/04/19 09:31:57;;;;;;;;;;;18.20;54.00;;;;;;5042441;28;19913;-61
2021/04/19 09:34:41;;;;;;;;;;;18.20;54.00;;;;;;5042351;28;19959;-56
2021/04/19 09:37:07;;;;;;;;;;;18.20;54.00;;;;;;5042056;28;19912;-61
2021/04/19 09:40:06;;;;;;;;;;;18.20;54.00;;;;;;5042548;28;20026;-60
2021/04/19 09:42:50;;;;;;;;;;;18.20;54.00;;;;;;4987776;28;19999;-60
2021/04/19 09:45:15;;;;;;;;;;;18.10;53.90;;;;;;5041964;28;19912;-57
2021/04/19 09:47:59;;;;;;;;;;;18.20;54.00;;;;;;5023899;28;19924;-60
2021/04/19 09:50:24;;;;;;;;;;;18.20;54.00;;;;;;5024087;28;20088;-57
2021/04/19 09:52:50;;;;;;;;;;;18.20;53.90;;;;;;5041710;28;20397;-58
2021/04/19 09:55:16;;;;;;;;;;;18.20;53.90;;;;;;5041030;28;19990;-57
2021/04/19 09:57:41;;;;;;;;;;;18.20;54.00;;;;;;5041925;28;19912;-61
2021/04/19 10:00:07;;;;;;;;;;;18.20;54.00;;;;;;5023466;28;19944;-57
2021/04/19 10:02:33;;;;;;;;;;;18.20;53.90;;;;;;5042166;28;19921;-57
2021/04/19 10:04:58;;;;;;;;;;;18.20;54.00;;;;;;5041946;28;19916;-58
2021/04/19 10:07:24;;;;;;;;;;;18.20;54.00;;;;;;5041434;28;19920;-58
2021/04/19 10:09:52;;;;;;;;;;;18.20;54.00;;;;;;5041727;28;19913;-56
2021/04/19 10:12:17;;;;;;;;;;;18.10;53.90;;;;;;5041586;28;20534;-59
2021/04/19 10:14:43;;;;;;;;;;;18.20;54.00;;;;;;5023792;28;19919;-59
2021/04/19 10:17:18;;;;;;;;;;;18.20;54.00;;;;;;5040913;28;20453;-62
2021/04/19 10:19:43;;;;;;;;;;;18.20;54.00;;;;;;5041967;28;19955;-58
2021/04/19 10:22:09;;;;;;;;;;;18.20;54.00;;;;;;5023706;28;20389;-58
2021/04/19 10:24:35;;;;;;;;;;;18.20;53.90;;;;;;5041174;28;19916;-62
2021/04/19 10:27:01;;;;;;;;;;;18.20;53.90;;;;;;5041115;28;20007;-62
2021/04/19 10:29:27;;;;;;;;;;;18.20;54.50;;;;;;5040790;28;20062;-56
2021/04/19 10:31:53;;;;;;;;;;;18.10;53.90;;;;;;5042139;28;19913;-56
2021/04/19 10:34:18;;;;;;;;;;;18.20;54.00;;;;;;5042528;28;20402;-56
2021/04/19 10:36:45;;;;;;;;;;;18.20;54.00;;;;;;5041766;28;19913;-56
2021/04/19 10:39:14;;;;;;;;;;;18.10;54.00;;;;;;5041140;28;19913;-58
2021/04/19 10:41:40;;;;;;;;;;;18.10;54.00;;;;;;5040825;28;20301;-61
2021/04/19 10:44:05;;;;;;;;;;;18.10;54.00;;;;;;5041046;28;19916;-57
2021/04/19 10:46:38;;;;;;;;;;;18.10;54.00;;;;;;5040411;28;19916;-57
2021/04/19 10:49:05;;;;;;;;;;;18.10;54.00;;;;;;5041308;28;19920;-59
2021/04/19 10:51:32;;;;;;;;;;;18.10;54.10;;;;;;5040584;28;20604;-58
2021/04/19 10:54:07;;;;;;;;;;;18.10;54.00;;;;;;5041008;28;20374;-55
2021/04/19 10:56:32;;;;;;;;;;;18.10;54.00;;;;;;5040429;28;19924;-57
2021/04/19 10:59:02;;;;;;;;;;;18.10;54.00;;;;;;5023064;28;19913;-58
2021/04/19 11:01:28;;;;;;;;;;;18.10;53.90;;;;;;5023052;28;19921;-55
2021/04/19 11:03:54;;;;;;;;;;;18.10;54.00;;;;;;5022608;28;19916;-60
2021/04/19 11:06:19;;;;;;;;;;;18.10;54.00;;;;;;5044099;28;20413;-56
2021/04/19 11:08:45;;;;;;;;;;;18.20;54.00;;;;;;5045019;28;20010;-62
2021/04/19 11:11:20;;;;;;;;;;;18.10;54.00;;;;;;5044701;28;19947;-62
2021/04/19 11:13:45;;;;;;;;;;;18.10;54.00;;;;;;5026576;28;19966;-57
2021/04/19 11:16:11;;;;;;;;;;;18.10;53.90;;;;;;5044973;28;19920;-59
2021/04/19 11:18:37;;;;;;;;;;;18.10;53.90;;;;;;5026703;28;20385;-59
2021/04/19 11:21:02;;;;;;;;;;;18.10;53.90;;;;;;5025747;28;19919;-61
2021/04/19 11:23:31;;;;;;;;;;;18.10;54.00;;;;;;5044519;28;20021;-59
2021/04/19 11:25:57;;;;;;;;;;;18.20;54.00;;;;;;5044308;28;19917;-60
2021/04/19 11:28:25;;;;;;;;;;;18.20;54.00;;;;;;5044533;28;19920;-59
2021/04/19 11:30:52;;;;;;;;;;;18.10;53.90;;;;;;5044623;28;19913;-58
2021/04/19 11:33:25;;;;;;;;;;;18.10;53.90;;;;;;5044977;28;19920;-59
2021/04/19 11:35:51;;;;;;;;;;;18.10;53.90;;;;;;5026496;28;19913;-60
2021/04/19 11:38:22;;;;;;;;;;;18.10;53.80;;;;;;5044282;28;20006;-62
2021/04/19 11:40:49;;;;;;;;;;;18.10;53.90;;;;;;5043839;28;19913;-61
2021/04/19 11:43:15;;;;;;;;;;;18.10;53.90;;;;;;5043754;28;19921;-60
2021/04/19 11:45:40;;;;;;;;;;;18.10;53.80;;;;;;5026193;28;20597;-59
2021/04/19 11:48:06;;;;;;;;;;;18.10;53.90;;;;;;5025463;28;19942;-58
2021/04/19 11:50:31;;;;;;;;;;;18.10;53.90;;;;;;5044047;28;20405;-58
2021/04/19 11:52:57;;;;;;;;;;;18.10;54.00;;;;;;5043953;28;19912;-61
2021/04/19 11:55:22;;;;;;;;;;;18.10;53.90;;;;;;5044151;28;20374;-56
2021/04/19 11:57:48;;;;;;;;;;;18.10;54.00;;;;;;5043862;28;19919;-59
2021/04/19 12:00:13;;;;;;;;;;;18.10;54.00;;;;;;5043922;28;19924;-62
2021/04/19 12:02:39;;;;;;;;;;;18.10;54.00;;;;;;5043947;28;19917;-57
2021/04/19 12:05:08;;;;;;;;;;;18.10;54.00;;;;;;5044230;28;19927;-59
2021/04/19 12:07:33;;;;;;;;;;;18.10;54.00;;;;;;5043341;28;19924;-56
2021/04/19 12:09:59;;;;;;;;;;;18.10;54.00;;;;;;5044519;28;19913;-55
2021/04/19 12:12:24;;;;;;;;;;;18.10;54.10;;;;;;5043463;28;20278;-59
2021/04/19 12:14:50;;;;;;;;;;;18.10;54.00;;;;;;5044720;28;19909;-58
2021/04/19 12:17:16;;;;;;;;;;;18.10;54.10;;;;;;5043175;28;19917;-58
2021/04/19 12:19:41;;;;;;;;;;;18.10;54.10;;;;;;5026042;28;20303;-58
2021/04/19 12:22:07;;;;;;;;;;;18.10;54.00;;;;;;5025935;28;19913;-58
2021/04/19 12:24:33;;;;;;;;;;;18.10;54.00;;;;;;5044001;28;19913;-59
2021/04/19 12:26:59;;;;;;;;;;;18.10;54.00;;;;;;5042749;28;22267;-58
2021/04/19 12:29:25;;;;;;;;;;;18.10;54.10;;;;;;5043646;28;19919;-58
2021/04/19 12:31:50;;;;;;;;;;;18.10;54.10;;;;;;5044518;28;19913;-60
2021/04/19 12:34:16;;;;;;;;;;;18.10;54.10;;;;;;5043505;28;19916;-56
2021/04/19 12:36:41;;;;;;;;;;;18.10;54.10;;;;;;5025073;28;19914;-60
2021/04/19 12:39:07;;;;;;;;;;;18.10;54.00;;;;;;5043729;28;19913;-63
2021/04/19 12:41:32;;;;;;;;;;;18.10;54.00;;;;;;5042554;28;19913;-57
2021/04/19 12:43:58;;;;;;;;;;;18.10;54.00;;;;;;5043274;28;19975;-59
2021/04/19 12:46:26;;;;;;;;;;;18.10;54.00;;;;;;5042567;28;19971;-62
2021/04/19 12:48:52;;;;;;;;;;;18.10;54.10;;;;;;5043432;28;19955;-61
2021/04/19 12:51:17;;;;;;;;;;;18.10;54.10;;;;;;5043377;28;19944;-58
2021/04/19 12:53:43;;;;;;;;;;;18.10;54.10;;;;;;5025134;28;20263;-57
2021/04/19 12:56:08;;;;;;;;;;;18.10;54.10;;;;;;5043055;28;19913;-59
2021/04/19 12:58:33;;;;;;;;;;;18.10;54.00;;;;;;5042756;28;19921;-62
2021/04/19 13:00:59;;;;;;;;;;;18.10;54.00;;;;;;5042826;28;19953;-58
2021/04/19 13:03:24;;;;;;;;;;;18.20;54.00;;;;;;5042608;28;19916;-60
2021/04/19 13:05:50;;;;;;;;;;;18.10;53.90;;;;;;5043423;28;19917;-60
2021/04/19 13:08:15;;;;;;;;;;;18.10;54.00;;;;;;5042783;28;19976;-59
2021/04/19 13:10:41;;;;;;;;;;;18.10;54.00;;;;;;5043475;28;19917;-61
2021/04/19 13:13:06;;;;;;;;;;;18.10;54.00;;;;;;5042642;28;19920;-61
2021/04/19 13:15:32;;;;;;;;;;;18.10;54.00;;;;;;5043277;28;20011;-60
2021/04/19 13:17:57;;;;;;;;;;;18.10;53.90;;;;;;5042513;28;19917;-60
2021/04/19 13:20:24;;;;;;;;;;;18.10;54.00;;;;;;5042918;28;19913;-62
2021/04/19 13:22:50;;;;;;;;;;;18.10;53.90;;;;;;5043326;28;20286;-60
2021/04/19 13:25:16;;;;;;;;;;;18.10;53.90;;;;;;5043983;28;19913;-59
2021/04/19 13:27:41;;;;;;;;;;;18.10;54.00;;;;;;5042376;28;19971;-58
2021/04/19 13:30:07;;;;;;;;;;;18.10;54.00;;;;;;5041596;28;19940;-59
2021/04/19 13:32:32;;;;;;;;;;;18.10;54.00;;;;;;5041853;28;20004;-57
2021/04/19 13:34:58;;;;;;;;;;;18.10;53.90;;;;;;5042373;28;19919;-60
2021/04/19 13:37:23;;;;;;;;;;;18.10;53.90;;;;;;5042459;28;19913;-57
2021/04/19 13:39:49;;;;;;;;;;;18.10;53.90;;;;;;5042984;28;20402;-59
2021/04/19 13:42:14;;;;;;;;;;;18.10;53.90;;;;;;5042183;28;19917;-60
2021/04/19 13:44:40;;;;;;;;;;;18.10;54.00;;;;;;5042450;28;20571;-58
2021/04/19 13:47:05;;;;;;;;;;;18.10;54.00;;;;;;5041659;28;19924;-60
2021/04/19 13:49:31;;;;;;;;;;;18.10;54.00;;;;;;5042680;28;19917;-61
2021/04/19 13:51:56;;;;;;;;;;;18.10;54.00;;;;;;5043196;28;19917;-58
2021/04/19 13:54:24;;;;;;;;;;;18.10;54.00;;;;;;5025189;28;19913;-56
2021/04/19 13:56:49;;;;;;;;;;;18.10;53.90;;;;;;5042640;28;20343;-58
2021/04/19 13:59:15;;;;;;;;;;;18.10;53.80;;;;;;5042176;28;19913;-59
2021/04/19 14:01:40;;;;;;;;;;;18.10;53.90;;;;;;5042467;28;20005;-58
2021/04/19 14:04:06;;;;;;;;;;;18.10;53.80;;;;;;5007023;28;19913;-60
2021/04/19 14:06:31;;;;;;;;;;;18.20;53.80;;;;;;5041192;28;19923;-61
2021/04/19 14:08:56;;;;;;;;;;;18.20;53.80;;;;;;5041873;28;20197;-58
2021/04/19 14:11:22;;;;;;;;;;;18.10;53.70;;;;;;5024311;28;20008;-60
2021/04/19 14:13:47;;;;;;;;;;;18.10;53.70;;;;;;5042893;28;19920;-60
2021/04/19 14:16:13;;;;;;;;;;;18.20;53.80;;;;;;5042331;28;19928;-57